sensor_id;sensor_type;location;lat;lon;timestamp;temperature;humidity
46309;DHT22;32037;50.820;6.494;2024-01-11T00:01:08;1.10;97.30
46309;DHT22;32037;50.820;6.494;2024-01-11T00:03:38;1.10;97.30
46309;DHT22;32037;50.820;6.494;2024-01-11T00:06:06;1.10;97.30
46309;DHT22;32037;50.820;6.494;2024-01-11T00:08:35;1.10;97.30
46309;DHT22;32037;50.820;6.494;2024-01-11T00:11:03;1.10;97.30
46309;DHT22;32037;50.820;6.494;2024-01-11T00:13:31;1.10;97.30
46309;DHT22;32037;50.820;6.494;2024-01-11T00:15:59;1.10;97.30
46309;DHT22;32037;50.820;6.494;2024-01-11T00:18:28;1.10;97.30
46309;DHT22;32037;50.820;6.494;2024-01-11T00:20:57;1.10;97.30
46309;DHT22;32037;50.820;6.494;2024-01-11T00:23:26;1.10;97.30
46309;DHT22;32037;50.820;6.494;2024-01-11T00:25:54;1.10;97.30
46309;DHT22;32037;50.820;6.494;2024-01-11T00:28:22;1.10;97.30
46309;DHT22;32037;50.820;6.494;2024-01-11T00:30:50;1.10;97.30
46309;DHT22;32037;50.820;6.494;2024-01-11T00:33:19;1.00;97.20
46309;DHT22;32037;50.820;6.494;2024-01-11T00:35:47;1.10;97.30
46309;DHT22;32037;50.820;6.494;2024-01-11T00:38:17;1.00;97.30
46309;DHT22;32037;50.820;6.494;2024-01-11T00:40:45;1.00;97.30
46309;DHT22;32037;50.820;6.494;2024-01-11T00:43:13;1.10;97.30
46309;DHT22;32037;50.820;6.494;2024-01-11T00:45:41;1.00;97.30
46309;DHT22;32037;50.820;6.494;2024-01-11T00:48:09;1.00;97.30
46309;DHT22;32037;50.820;6.494;2024-01-11T00:50:38;1.10;97.30
46309;DHT22;32037;50.820;6.494;2024-01-11T00:53:06;1.00;97.30
46309;DHT22;32037;50.820;6.494;2024-01-11T00:55:36;1.00;97.30
46309;DHT22;32037;50.820;6.494;2024-01-11T00:58:05;1.00;97.30
46309;DHT22;32037;50.820;6.494;2024-01-11T01:00:33;1.00;97.30
46309;DHT22;32037;50.820;6.494;2024-01-11T01:03:02;1.00;97.30
46309;DHT22;32037;50.820;6.494;2024-01-11T01:05:30;1.00;97.30
46309;DHT22;32037;50.820;6.494;2024-01-11T01:07:59;1.00;97.30
46309;DHT22;32037;50.820;6.494;2024-01-11T01:10:27;1.00;97.30
46309;DHT22;32037;50.820;6.494;2024-01-11T01:12:56;1.00;97.30
46309;DHT22;32037;50.820;6.494;2024-01-11T01:15:25;1.00;97.30
46309;DHT22;32037;50.820;6.494;2024-01-11T01:17:53;1.00;97.30
46309;DHT22;32037;50.820;6.494;2024-01-11T01:20:22;1.00;97.30
46309;DHT22;32037;50.820;6.494;2024-01-11T01:22:49;1.00;97.30
46309;DHT22;32037;50.820;6.494;2024-01-11T01:25:17;1.00;97.30
46309;DHT22;32037;50.820;6.494;2024-01-11T01:27:46;1.00;97.30
46309;DHT22;32037;50.820;6.494;2024-01-11T01:30:16;1.00;97.30
46309;DHT22;32037;50.820;6.494;2024-01-11T01:32:45;1.00;97.30
46309;DHT22;32037;50.820;6.494;2024-01-11T01:35:13;1.00;97.30
46309;DHT22;32037;50.820;6.494;2024-01-11T01:37:41;1.00;97.30
46309;DHT22;32037;50.820;6.494;2024-01-11T01:40:11;1.00;97.30
46309;DHT22;32037;50.820;6.494;2024-01-11T01:42:41;1.00;97.30
46309;DHT22;32037;50.820;6.494;2024-01-11T01:45:10;1.00;97.30
46309;DHT22;32037;50.820;6.494;2024-01-11T01:47:40;1.00;97.30
46309;DHT22;32037;50.820;6.494;2024-01-11T01:50:10;1.00;97.30
46309;DHT22;32037;50.820;6.494;2024-01-11T01:52:40;1.00;97.30
46309;DHT22;32037;50.820;6.494;2024-01-11T01:55:12;1.00;97.30
46309;DHT22;32037;50.820;6.494;2024-01-11T01:57:43;1.00;97.30
46309;DHT22;32037;50.820;6.494;2024-01-11T02:00:13;1.00;97.30
46309;DHT22;32037;50.820;6.494;2024-01-11T02:02:44;0.90;97.20
46309;DHT22;32037;50.820;6.494;2024-01-11T02:05:13;1.00;97.30
46309;DHT22;32037;50.820;6.494;2024-01-11T02:07:42;1.00;97.30
46309;DHT22;32037;50.820;6.494;2024-01-11T02:10:11;0.90;97.20
46309;DHT22;32037;50.820;6.494;2024-01-11T02:12:39;1.00;97.30
46309;DHT22;32037;50.820;6.494;2024-01-11T02:15:09;1.00;97.30
46309;DHT22;32037;50.820;6.494;2024-01-11T02:17:40;0.90;97.20
46309;DHT22;32037;50.820;6.494;2024-01-11T02:20:10;0.90;97.30
46309;DHT22;32037;50.820;6.494;2024-01-11T02:22:43;0.90;97.30
46309;DHT22;32037;50.820;6.494;2024-01-11T02:25:16;0.90;97.30
46309;DHT22;32037;50.820;6.494;2024-01-11T02:27:46;0.90;97.30
46309;DHT22;32037;50.820;6.494;2024-01-11T02:30:15;0.90;97.30
46309;DHT22;32037;50.820;6.494;2024-01-11T02:32:44;0.90;97.30
46309;DHT22;32037;50.820;6.494;2024-01-11T02:35:14;0.90;97.30
46309;DHT22;32037;50.820;6.494;2024-01-11T02:37:43;0.90;97.30
46309;DHT22;32037;50.820;6.494;2024-01-11T02:40:13;0.90;97.30
46309;DHT22;32037;50.820;6.494;2024-01-11T02:42:43;0.90;97.30
46309;DHT22;32037;50.820;6.494;2024-01-11T02:45:11;0.90;97.30
46309;DHT22;32037;50.820;6.494;2024-01-11T02:47:40;0.90;97.30
46309;DHT22;32037;50.820;6.494;2024-01-11T02:50:09;0.90;97.30
46309;DHT22;32037;50.820;6.494;2024-01-11T02:52:39;0.90;97.30
46309;DHT22;32037;50.820;6.494;2024-01-11T02:55:07;0.90;97.30
46309;DHT22;32037;50.820;6.494;2024-01-11T02:57:35;0.90;97.30
46309;DHT22;32037;50.820;6.494;2024-01-11T03:00:06;0.90;97.30
46309;DHT22;32037;50.820;6.494;2024-01-11T03:02:36;0.90;97.30
46309;DHT22;32037;50.820;6.494;2024-01-11T03:05:05;0.90;97.30
46309;DHT22;32037;50.820;6.494;2024-01-11T03:07:33;0.90;97.30
46309;DHT22;32037;50.820;6.494;2024-01-11T03:10:02;0.90;97.30
46309;DHT22;32037;50.820;6.494;2024-01-11T03:12:30;0.90;97.20
46309;DHT22;32037;50.820;6.494;2024-01-11T03:14:58;0.90;97.20
46309;DHT22;32037;50.820;6.494;2024-01-11T03:17:27;0.80;97.20
46309;DHT22;32037;50.820;6.494;2024-01-11T03:19:56;0.90;97.20
46309;DHT22;32037;50.820;6.494;2024-01-11T03:22:24;0.80;97.20
46309;DHT22;32037;50.820;6.494;2024-01-11T03:24:53;0.80;97.20
46309;DHT22;32037;50.820;6.494;2024-01-11T03:27:21;0.90;97.30
46309;DHT22;32037;50.820;6.494;2024-01-11T03:29:50;0.90;97.30
46309;DHT22;32037;50.820;6.494;2024-01-11T03:32:18;0.80;97.20
46309;DHT22;32037;50.820;6.494;2024-01-11T03:34:48;0.80;97.20
46309;DHT22;32037;50.820;6.494;2024-01-11T03:37:17;0.80;97.20
46309;DHT22;32037;50.820;6.494;2024-01-11T03:39:45;0.80;97.20
46309;DHT22;32037;50.820;6.494;2024-01-11T03:42:13;0.80;97.20
46309;DHT22;32037;50.820;6.494;2024-01-11T03:44:41;0.80;97.20
46309;DHT22;32037;50.820;6.494;2024-01-11T03:47:10;0.80;97.20
46309;DHT22;32037;50.820;6.494;2024-01-11T03:49:38;0.80;97.20
46309;DHT22;32037;50.820;6.494;2024-01-11T03:52:08;0.80;97.20
46309;DHT22;32037;50.820;6.494;2024-01-11T03:54:36;0.80;97.20
46309;DHT22;32037;50.820;6.494;2024-01-11T03:57:05;0.80;97.20
46309;DHT22;32037;50.820;6.494;2024-01-11T03:59:33;0.80;97.20
46309;DHT22;32037;50.820;6.494;2024-01-11T04:02:02;0.80;97.20
46309;DHT22;32037;50.820;6.494;2024-01-11T04:04:30;0.80;97.20
46309;DHT22;32037;50.820;6.494;2024-01-11T04:06:58;0.80;97.20
46309;DHT22;32037;50.820;6.494;2024-01-11T04:09:28;0.80;97.20
46309;DHT22;32037;50.820;6.494;2024-01-11T04:11:56;0.80;97.20
46309;DHT22;32037;50.820;6.494;2024-01-11T04:14:24;0.80;97.30
46309;DHT22;32037;50.820;6.494;2024-01-11T04:16:52;0.80;97.30
46309;DHT22;32037;50.820;6.494;2024-01-11T04:19:20;0.80;97.30
46309;DHT22;32037;50.820;6.494;2024-01-11T04:21:50;0.80;97.20
46309;DHT22;32037;50.820;6.494;2024-01-11T04:24:18;0.80;97.30
46309;DHT22;32037;50.820;6.494;2024-01-11T04:26:48;0.80;97.30
46309;DHT22;32037;50.820;6.494;2024-01-11T04:29:16;0.80;97.20
46309;DHT22;32037;50.820;6.494;2024-01-11T04:31:44;0.80;97.30
46309;DHT22;32037;50.820;6.494;2024-01-11T04:34:13;0.80;97.30
46309;DHT22;32037;50.820;6.494;2024-01-11T04:36:41;0.70;97.20
46309;DHT22;32037;50.820;6.494;2024-01-11T04:39:09;0.70;97.20
46309;DHT22;32037;50.820;6.494;2024-01-11T04:41:39;0.70;97.20
46309;DHT22;32037;50.820;6.494;2024-01-11T04:44:10;0.70;97.20
46309;DHT22;32037;50.820;6.494;2024-01-11T04:46:38;0.70;97.20
46309;DHT22;32037;50.820;6.494;2024-01-11T04:49:06;0.70;97.20
46309;DHT22;32037;50.820;6.494;2024-01-11T04:51:35;0.70;97.30
46309;DHT22;32037;50.820;6.494;2024-01-11T04:54:03;0.70;97.20
46309;DHT22;32037;50.820;6.494;2024-01-11T04:56:31;0.70;97.20
46309;DHT22;32037;50.820;6.494;2024-01-11T04:58:59;0.70;97.20
46309;DHT22;32037;50.820;6.494;2024-01-11T05:01:29;0.70;97.20
46309;DHT22;32037;50.820;6.494;2024-01-11T05:03:57;0.70;97.20
46309;DHT22;32037;50.820;6.494;2024-01-11T05:06:25;0.70;97.20
46309;DHT22;32037;50.820;6.494;2024-01-11T05:08:53;0.70;97.20
46309;DHT22;32037;50.820;6.494;2024-01-11T05:11:22;0.70;97.20
46309;DHT22;32037;50.820;6.494;2024-01-11T05:13:52;0.70;97.20
46309;DHT22;32037;50.820;6.494;2024-01-11T05:16:22;0.70;97.20
46309;DHT22;32037;50.820;6.494;2024-01-11T05:18:52;0.70;97.20
46309;DHT22;32037;50.820;6.494;2024-01-11T05:21:21;0.70;97.20
46309;DHT22;32037;50.820;6.494;2024-01-11T05:23:49;0.70;97.20
46309;DHT22;32037;50.820;6.494;2024-01-11T05:26:18;0.70;97.20
46309;DHT22;32037;50.820;6.494;2024-01-11T05:28:47;0.70;97.20
46309;DHT22;32037;50.820;6.494;2024-01-11T05:31:15;0.70;97.20
46309;DHT22;32037;50.820;6.494;2024-01-11T05:33:45;0.70;97.20
46309;DHT22;32037;50.820;6.494;2024-01-11T05:36:15;0.70;97.20
46309;DHT22;32037;50.820;6.494;2024-01-11T05:38:45;0.70;97.20
46309;DHT22;32037;50.820;6.494;2024-01-11T05:41:13;0.70;97.20
46309;DHT22;32037;50.820;6.494;2024-01-11T05:43:41;0.70;97.20
46309;DHT22;32037;50.820;6.494;2024-01-11T05:46:11;0.70;97.20
46309;DHT22;32037;50.820;6.494;2024-01-11T05:48:39;0.60;97.20
46309;DHT22;32037;50.820;6.494;2024-01-11T05:51:08;0.70;97.20
46309;DHT22;32037;50.820;6.494;2024-01-11T05:53:37;0.70;97.20
46309;DHT22;32037;50.820;6.494;2024-01-11T05:56:09;0.60;97.20
46309;DHT22;32037;50.820;6.494;2024-01-11T05:58:39;0.70;97.20
46309;DHT22;32037;50.820;6.494;2024-01-11T06:01:07;0.60;97.20
46309;DHT22;32037;50.820;6.494;2024-01-11T06:03:36;0.70;97.20
46309;DHT22;32037;50.820;6.494;2024-01-11T06:06:06;0.60;97.10
46309;DHT22;32037;50.820;6.494;2024-01-11T06:08:36;0.70;97.20
46309;DHT22;32037;50.820;6.494;2024-01-11T06:11:05;0.60;97.10
46309;DHT22;32037;50.820;6.494;2024-01-11T06:13:35;0.60;97.20
46309;DHT22;32037;50.820;6.494;2024-01-11T06:16:03;0.60;97.20
46309;DHT22;32037;50.820;6.494;2024-01-11T06:18:31;0.60;97.20
46309;DHT22;32037;50.820;6.494;2024-01-11T06:21:00;0.60;97.20
46309;DHT22;32037;50.820;6.494;2024-01-11T06:23:28;0.60;97.20
46309;DHT22;32037;50.820;6.494;2024-01-11T06:25:57;0.60;97.20
46309;DHT22;32037;50.820;6.494;2024-01-11T06:28:26;0.60;97.20
46309;DHT22;32037;50.820;6.494;2024-01-11T06:30:54;0.60;97.20
46309;DHT22;32037;50.820;6.494;2024-01-11T06:33:23;0.60;97.20
46309;DHT22;32037;50.820;6.494;2024-01-11T06:35:51;0.60;97.20
46309;DHT22;32037;50.820;6.494;2024-01-11T06:38:20;0.60;97.20
46309;DHT22;32037;50.820;6.494;2024-01-11T06:40:48;0.60;97.70
46309;DHT22;32037;50.820;6.494;2024-01-11T06:43:17;0.60;97.20
46309;DHT22;32037;50.820;6.494;2024-01-11T06:45:45;0.60;97.20
46309;DHT22;32037;50.820;6.494;2024-01-11T06:48:14;0.60;97.20
46309;DHT22;32037;50.820;6.494;2024-01-11T06:50:44;0.60;97.70
46309;DHT22;32037;50.820;6.494;2024-01-11T06:53:12;0.60;97.20
46309;DHT22;32037;50.820;6.494;2024-01-11T06:55:40;0.60;97.20
46309;DHT22;32037;50.820;6.494;2024-01-11T06:58:09;0.60;97.20
46309;DHT22;32037;50.820;6.494;2024-01-11T07:00:39;0.50;97.10
46309;DHT22;32037;50.820;6.494;2024-01-11T07:03:11;0.50;97.10
46309;DHT22;32037;50.820;6.494;2024-01-11T07:05:39;0.50;97.10
46309;DHT22;32037;50.820;6.494;2024-01-11T07:08:08;0.50;97.10
46309;DHT22;32037;50.820;6.494;2024-01-11T07:10:36;0.60;97.20
46309;DHT22;32037;50.820;6.494;2024-01-11T07:13:05;0.60;97.20
46309;DHT22;32037;50.820;6.494;2024-01-11T07:15:34;0.50;97.10
46309;DHT22;32037;50.820;6.494;2024-01-11T07:18:04;0.50;97.20
46309;DHT22;32037;50.820;6.494;2024-01-11T07:20:32;0.50;97.20
46309;DHT22;32037;50.820;6.494;2024-01-11T07:23:01;0.50;97.10
46309;DHT22;32037;50.820;6.494;2024-01-11T07:25:29;0.50;97.20
46309;DHT22;32037;50.820;6.494;2024-01-11T07:27:58;0.50;97.20
46309;DHT22;32037;50.820;6.494;2024-01-11T07:30:26;0.50;97.10
46309;DHT22;32037;50.820;6.494;2024-01-11T07:32:55;0.50;97.10
46309;DHT22;32037;50.820;6.494;2024-01-11T07:35:25;0.50;97.10
46309;DHT22;32037;50.820;6.494;2024-01-11T07:37:53;0.50;97.10
46309;DHT22;32037;50.820;6.494;2024-01-11T07:40:21;0.50;97.10
46309;DHT22;32037;50.820;6.494;2024-01-11T07:42:49;0.50;97.10
46309;DHT22;32037;50.820;6.494;2024-01-11T07:45:18;0.50;97.20
46309;DHT22;32037;50.820;6.494;2024-01-11T07:47:46;0.50;97.10
46309;DHT22;32037;50.820;6.494;2024-01-11T07:50:15;0.50;97.10
46309;DHT22;32037;50.820;6.494;2024-01-11T07:52:44;0.50;97.10
46309;DHT22;32037;50.820;6.494;2024-01-11T07:55:12;0.50;97.20
46309;DHT22;32037;50.820;6.494;2024-01-11T07:57:41;0.50;97.20
46309;DHT22;32037;50.820;6.494;2024-01-11T08:00:09;0.50;97.60
46309;DHT22;32037;50.820;6.494;2024-01-11T08:02:40;0.50;97.10
46309;DHT22;32037;50.820;6.494;2024-01-11T08:05:09;0.40;97.10
46309;DHT22;32037;50.820;6.494;2024-01-11T08:07:37;0.40;97.10
46309;DHT22;32037;50.820;6.494;2024-01-11T08:10:08;0.50;97.20
46309;DHT22;32037;50.820;6.494;2024-01-11T08:12:36;0.40;97.10
46309;DHT22;32037;50.820;6.494;2024-01-11T08:15:05;0.50;97.20
46309;DHT22;32037;50.820;6.494;2024-01-11T08:17:33;0.40;97.10
46309;DHT22;32037;50.820;6.494;2024-01-11T08:20:05;0.40;97.10
46309;DHT22;32037;50.820;6.494;2024-01-11T08:22:35;0.40;97.10
46309;DHT22;32037;50.820;6.494;2024-01-11T08:25:05;0.40;97.10
46309;DHT22;32037;50.820;6.494;2024-01-11T08:27:35;0.50;97.10
46309;DHT22;32037;50.820;6.494;2024-01-11T08:30:04;0.50;97.10
46309;DHT22;32037;50.820;6.494;2024-01-11T08:32:35;0.40;97.10
46309;DHT22;32037;50.820;6.494;2024-01-11T08:35:07;0.40;97.10
46309;DHT22;32037;50.820;6.494;2024-01-11T08:37:37;0.40;97.10
46309;DHT22;32037;50.820;6.494;2024-01-11T08:40:06;0.40;97.10
46309;DHT22;32037;50.820;6.494;2024-01-11T08:42:38;0.40;97.10
46309;DHT22;32037;50.820;6.494;2024-01-11T08:45:07;0.40;97.10
46309;DHT22;32037;50.820;6.494;2024-01-11T08:47:35;0.40;97.10
46309;DHT22;32037;50.820;6.494;2024-01-11T08:50:06;0.40;97.10
46309;DHT22;32037;50.820;6.494;2024-01-11T08:52:35;0.40;97.10
46309;DHT22;32037;50.820;6.494;2024-01-11T08:55:05;0.40;97.10
46309;DHT22;32037;50.820;6.494;2024-01-11T08:57:33;0.40;97.10
46309;DHT22;32037;50.820;6.494;2024-01-11T09:00:04;0.40;97.10
46309;DHT22;32037;50.820;6.494;2024-01-11T09:02:34;0.40;97.10
46309;DHT22;32037;50.820;6.494;2024-01-11T09:05:02;0.40;97.10
46309;DHT22;32037;50.820;6.494;2024-01-11T09:07:35;0.40;97.10
46309;DHT22;32037;50.820;6.494;2024-01-11T09:10:05;0.40;97.10
46309;DHT22;32037;50.820;6.494;2024-01-11T09:12:34;0.40;97.10
46309;DHT22;32037;50.820;6.494;2024-01-11T09:15:04;0.40;97.10
46309;DHT22;32037;50.820;6.494;2024-01-11T09:17:33;0.40;97.10
46309;DHT22;32037;50.820;6.494;2024-01-11T09:20:01;0.40;97.10
46309;DHT22;32037;50.820;6.494;2024-01-11T09:22:30;0.40;97.10
46309;DHT22;32037;50.820;6.494;2024-01-11T09:24:59;0.40;97.50
46309;DHT22;32037;50.820;6.494;2024-01-11T09:27:28;0.40;97.00
46309;DHT22;32037;50.820;6.494;2024-01-11T09:29:58;0.40;97.10
46309;DHT22;32037;50.820;6.494;2024-01-11T09:32:29;0.40;97.10
46309;DHT22;32037;50.820;6.494;2024-01-11T09:34:59;0.40;97.00
46309;DHT22;32037;50.820;6.494;2024-01-11T09:37:31;0.40;97.00
46309;DHT22;32037;50.820;6.494;2024-01-11T09:40:01;0.50;97.00
46309;DHT22;32037;50.820;6.494;2024-01-11T09:42:32;0.50;97.00
46309;DHT22;32037;50.820;6.494;2024-01-11T09:45:02;0.50;96.80
46309;DHT22;32037;50.820;6.494;2024-01-11T09:47:36;0.50;96.80
46309;DHT22;32037;50.820;6.494;2024-01-11T09:50:08;0.50;96.80
46309;DHT22;32037;50.820;6.494;2024-01-11T09:52:39;0.50;96.70
46309;DHT22;32037;50.820;6.494;2024-01-11T09:55:09;0.50;96.80
46309;DHT22;32037;50.820;6.494;2024-01-11T09:57:44;0.50;96.70
46309;DHT22;32037;50.820;6.494;2024-01-11T10:00:18;0.50;96.80
46309;DHT22;32037;50.820;6.494;2024-01-11T10:02:50;0.50;96.80
46309;DHT22;32037;50.820;6.494;2024-01-11T10:05:20;0.50;96.80
46309;DHT22;32037;50.820;6.494;2024-01-11T10:07:50;0.50;96.80
46309;DHT22;32037;50.820;6.494;2024-01-11T10:10:20;0.50;96.80
46309;DHT22;32037;50.820;6.494;2024-01-11T10:12:50;0.50;96.80
46309;DHT22;32037;50.820;6.494;2024-01-11T10:15:19;0.50;96.80
46309;DHT22;32037;50.820;6.494;2024-01-11T10:17:53;0.50;96.80
46309;DHT22;32037;50.820;6.494;2024-01-11T10:20:22;0.50;96.90
46309;DHT22;32037;50.820;6.494;2024-01-11T10:22:52;0.50;96.90
46309;DHT22;32037;50.820;6.494;2024-01-11T10:25:20;0.50;96.90
46309;DHT22;32037;50.820;6.494;2024-01-11T10:27:48;0.40;96.90
46309;DHT22;32037;50.820;6.494;2024-01-11T10:30:17;0.50;96.90
46309;DHT22;32037;50.820;6.494;2024-01-11T10:32:47;0.50;96.90
46309;DHT22;32037;50.820;6.494;2024-01-11T10:35:17;0.40;96.90
46309;DHT22;32037;50.820;6.494;2024-01-11T10:37:51;0.40;96.90
46309;DHT22;32037;50.820;6.494;2024-01-11T10:40:21;0.50;97.00
46309;DHT22;32037;50.820;6.494;2024-01-11T10:42:52;0.40;97.00
46309;DHT22;32037;50.820;6.494;2024-01-11T10:45:22;0.40;97.00
46309;DHT22;32037;50.820;6.494;2024-01-11T10:47:54;0.40;97.00
46309;DHT22;32037;50.820;6.494;2024-01-11T10:50:32;0.40;97.00
46309;DHT22;32037;50.820;6.494;2024-01-11T10:53:04;0.50;97.10
46309;DHT22;32037;50.820;6.494;2024-01-11T10:55:41;0.40;97.10
46309;DHT22;32037;50.820;6.494;2024-01-11T10:58:11;0.50;97.10
46309;DHT22;32037;50.820;6.494;2024-01-11T11:00:43;0.40;97.10
46309;DHT22;32037;50.820;6.494;2024-01-11T11:03:15;0.40;97.10
46309;DHT22;32037;50.820;6.494;2024-01-11T11:05:48;0.50;97.20
46309;DHT22;32037;50.820;6.494;2024-01-11T11:08:18;0.40;97.20
46309;DHT22;32037;50.820;6.494;2024-01-11T11:10:48;0.40;97.10
46309;DHT22;32037;50.820;6.494;2024-01-11T11:13:19;0.50;97.20
46309;DHT22;32037;50.820;6.494;2024-01-11T11:15:48;0.40;97.10
46309;DHT22;32037;50.820;6.494;2024-01-11T11:18:18;0.40;97.20
46309;DHT22;32037;50.820;6.494;2024-01-11T11:20:50;0.40;97.20
46309;DHT22;32037;50.820;6.494;2024-01-11T11:23:20;0.40;97.20
46309;DHT22;32037;50.820;6.494;2024-01-11T11:25:49;0.40;97.20
46309;DHT22;32037;50.820;6.494;2024-01-11T11:28:19;0.40;97.20
46309;DHT22;32037;50.820;6.494;2024-01-11T11:30:49;0.40;97.20
46309;DHT22;32037;50.820;6.494;2024-01-11T11:33:20;0.40;97.30
46309;DHT22;32037;50.820;6.494;2024-01-11T11:35:53;0.40;97.30
46309;DHT22;32037;50.820;6.494;2024-01-11T11:38:23;0.40;97.30
46309;DHT22;32037;50.820;6.494;2024-01-11T11:40:54;0.40;97.30
46309;DHT22;32037;50.820;6.494;2024-01-11T11:43:24;0.40;97.30
46309;DHT22;32037;50.820;6.494;2024-01-11T11:45:54;0.40;97.30
46309;DHT22;32037;50.820;6.494;2024-01-11T11:48:50;0.40;97.30
46309;DHT22;32037;50.820;6.494;2024-01-11T11:51:22;0.40;97.30
46309;DHT22;32037;50.820;6.494;2024-01-11T11:53:54;0.40;97.30
46309;DHT22;32037;50.820;6.494;2024-01-11T11:56:23;0.40;97.30
46309;DHT22;32037;50.820;6.494;2024-01-11T11:58:52;0.40;97.30
46309;DHT22;32037;50.820;6.494;2024-01-11T12:01:23;0.40;97.30
46309;DHT22;32037;50.820;6.494;2024-01-11T12:03:52;0.40;97.40
46309;DHT22;32037;50.820;6.494;2024-01-11T12:06:24;0.40;97.40
46309;DHT22;32037;50.820;6.494;2024-01-11T12:08:55;0.40;97.40
46309;DHT22;32037;50.820;6.494;2024-01-11T12:11:25;0.40;97.40
46309;DHT22;32037;50.820;6.494;2024-01-11T12:13:56;0.40;97.60
46309;DHT22;32037;50.820;6.494;2024-01-11T12:16:26;0.40;97.40
46309;DHT22;32037;50.820;6.494;2024-01-11T12:18:56;0.40;97.40
46309;DHT22;32037;50.820;6.494;2024-01-11T12:21:26;0.40;97.40
46309;DHT22;32037;50.820;6.494;2024-01-11T12:23:55;0.40;97.40
46309;DHT22;32037;50.820;6.494;2024-01-11T12:26:25;0.40;97.50
46309;DHT22;32037;50.820;6.494;2024-01-11T12:28:54;0.40;97.50
46309;DHT22;32037;50.820;6.494;2024-01-11T12:31:23;0.40;97.50
46309;DHT22;32037;50.820;6.494;2024-01-11T12:33:52;0.40;97.50
46309;DHT22;32037;50.820;6.494;2024-01-11T12:36:22;0.40;97.50
46309;DHT22;32037;50.820;6.494;2024-01-11T12:38:57;0.40;97.50
46309;DHT22;32037;50.820;6.494;2024-01-11T12:41:27;0.40;97.50
46309;DHT22;32037;50.820;6.494;2024-01-11T12:43:56;0.40;97.50
46309;DHT22;32037;50.820;6.494;2024-01-11T12:46:25;0.40;97.50
46309;DHT22;32037;50.820;6.494;2024-01-11T12:48:57;0.40;97.50
46309;DHT22;32037;50.820;6.494;2024-01-11T12:51:27;0.40;97.50
46309;DHT22;32037;50.820;6.494;2024-01-11T12:53:58;0.40;97.60
46309;DHT22;32037;50.820;6.494;2024-01-11T12:56:30;0.40;97.50
46309;DHT22;32037;50.820;6.494;2024-01-11T12:59:07;0.40;97.60
46309;DHT22;32037;50.820;6.494;2024-01-11T13:01:37;0.40;97.60
46309;DHT22;32037;50.820;6.494;2024-01-11T13:04:09;0.40;97.60
46309;DHT22;32037;50.820;6.494;2024-01-11T13:06:40;0.40;97.60
46309;DHT22;32037;50.820;6.494;2024-01-11T13:09:13;0.40;97.60
46309;DHT22;32037;50.820;6.494;2024-01-11T13:11:42;0.40;97.60
46309;DHT22;32037;50.820;6.494;2024-01-11T13:14:12;0.40;97.60
46309;DHT22;32037;50.820;6.494;2024-01-11T13:16:47;0.40;97.60
46309;DHT22;32037;50.820;6.494;2024-01-11T13:19:16;0.40;97.60
46309;DHT22;32037;50.820;6.494;2024-01-11T13:21:54;0.40;97.70
46309;DHT22;32037;50.820;6.494;2024-01-11T13:24:25;0.40;97.70
46309;DHT22;32037;50.820;6.494;2024-01-11T13:26:57;0.40;97.70
46309;DHT22;32037;50.820;6.494;2024-01-11T13:29:26;0.40;97.70
46309;DHT22;32037;50.820;6.494;2024-01-11T13:31:55;0.40;97.70
46309;DHT22;32037;50.820;6.494;2024-01-11T13:34:27;0.40;97.70
46309;DHT22;32037;50.820;6.494;2024-01-11T13:36:56;0.40;97.70
46309;DHT22;32037;50.820;6.494;2024-01-11T13:39:31;0.40;97.70
46309;DHT22;32037;50.820;6.494;2024-01-11T13:42:00;0.40;97.70
46309;DHT22;32037;50.820;6.494;2024-01-11T13:44:31;0.40;97.70
46309;DHT22;32037;50.820;6.494;2024-01-11T13:47:01;0.40;97.70
46309;DHT22;32037;50.820;6.494;2024-01-11T13:49:31;0.40;97.70
46309;DHT22;32037;50.820;6.494;2024-01-11T13:52:01;0.40;97.70
46309;DHT22;32037;50.820;6.494;2024-01-11T13:54:34;0.50;97.80
46309;DHT22;32037;50.820;6.494;2024-01-11T13:57:04;0.40;97.80
46309;DHT22;32037;50.820;6.494;2024-01-11T13:59:34;0.40;97.80
46309;DHT22;32037;50.820;6.494;2024-01-11T14:02:02;0.40;97.80
46309;DHT22;32037;50.820;6.494;2024-01-11T14:04:32;0.40;97.70
46309;DHT22;32037;50.820;6.494;2024-01-11T14:07:01;0.40;97.80
46309;DHT22;32037;50.820;6.494;2024-01-11T14:09:30;0.40;97.80
46309;DHT22;32037;50.820;6.494;2024-01-11T14:12:01;0.40;97.80
46309;DHT22;32037;50.820;6.494;2024-01-11T14:14:30;0.40;97.80
46309;DHT22;32037;50.820;6.494;2024-01-11T14:16:59;0.40;97.80
46309;DHT22;32037;50.820;6.494;2024-01-11T14:19:27;0.50;97.80
46309;DHT22;32037;50.820;6.494;2024-01-11T14:21:56;0.50;98.00
46309;DHT22;32037;50.820;6.494;2024-01-11T14:24:24;0.50;97.90
46309;DHT22;32037;50.820;6.494;2024-01-11T14:27:04;0.40;97.80
46309;DHT22;32037;50.820;6.494;2024-01-11T14:29:33;0.40;97.80
46309;DHT22;32037;50.820;6.494;2024-01-11T14:32:01;0.40;97.90
46309;DHT22;32037;50.820;6.494;2024-01-11T14:34:33;0.40;97.90
46309;DHT22;32037;50.820;6.494;2024-01-11T14:37:02;0.40;97.90
46309;DHT22;32037;50.820;6.494;2024-01-11T14:39:31;0.40;98.00
46309;DHT22;32037;50.820;6.494;2024-01-11T14:41:59;0.40;98.00
46309;DHT22;32037;50.820;6.494;2024-01-11T14:44:29;0.40;98.00
46309;DHT22;32037;50.820;6.494;2024-01-11T14:46:57;0.40;98.00
46309;DHT22;32037;50.820;6.494;2024-01-11T14:49:26;0.40;98.00
46309;DHT22;32037;50.820;6.494;2024-01-11T14:51:57;0.40;98.00
46309;DHT22;32037;50.820;6.494;2024-01-11T14:54:25;0.40;98.00
46309;DHT22;32037;50.820;6.494;2024-01-11T14:56:54;0.40;98.00
46309;DHT22;32037;50.820;6.494;2024-01-11T14:59:22;0.40;98.00
46309;DHT22;32037;50.820;6.494;2024-01-11T15:01:52;0.40;98.00
46309;DHT22;32037;50.820;6.494;2024-01-11T15:04:21;0.40;98.00
46309;DHT22;32037;50.820;6.494;2024-01-11T15:06:50;0.40;98.00
46309;DHT22;32037;50.820;6.494;2024-01-11T15:09:18;0.40;98.00
46309;DHT22;32037;50.820;6.494;2024-01-11T15:11:46;0.40;98.00
46309;DHT22;32037;50.820;6.494;2024-01-11T15:14:15;0.40;98.00
46309;DHT22;32037;50.820;6.494;2024-01-11T15:16:44;0.40;98.00
46309;DHT22;32037;50.820;6.494;2024-01-11T15:19:14;0.40;98.00
46309;DHT22;32037;50.820;6.494;2024-01-11T15:21:43;0.40;98.00
46309;DHT22;32037;50.820;6.494;2024-01-11T15:24:17;0.40;98.00
46309;DHT22;32037;50.820;6.494;2024-01-11T15:26:47;0.40;98.00
46309;DHT22;32037;50.820;6.494;2024-01-11T15:29:16;0.40;98.00
46309;DHT22;32037;50.820;6.494;2024-01-11T15:31:45;0.40;98.00
46309;DHT22;32037;50.820;6.494;2024-01-11T15:34:16;0.40;98.00
46309;DHT22;32037;50.820;6.494;2024-01-11T15:36:45;0.40;98.10
46309;DHT22;32037;50.820;6.494;2024-01-11T15:39:14;0.40;98.10
46309;DHT22;32037;50.820;6.494;2024-01-11T15:41:54;0.40;98.00
46309;DHT22;32037;50.820;6.494;2024-01-11T15:44:25;0.40;98.00
46309;DHT22;32037;50.820;6.494;2024-01-11T15:46:56;0.40;98.00
46309;DHT22;32037;50.820;6.494;2024-01-11T15:49:25;0.40;98.10
46309;DHT22;32037;50.820;6.494;2024-01-11T15:51:54;0.40;98.10
46309;DHT22;32037;50.820;6.494;2024-01-11T15:54:24;0.50;98.10
46309;DHT22;32037;50.820;6.494;2024-01-11T15:56:53;0.50;98.00
46309;DHT22;32037;50.820;6.494;2024-01-11T15:59:25;0.60;98.00